sensor_id;sensor_type;location;lat;lon;timestamp;temperature;humidity
51825;DHT22;37879;52.986;6.282;2023-02-01T00:02:08;6.10;99.90
51825;DHT22;37879;52.986;6.282;2023-02-01T00:04:34;6.10;99.90
51825;DHT22;37879;52.986;6.282;2023-02-01T00:06:59;6.10;99.90
51825;DHT22;37879;52.986;6.282;2023-02-01T00:09:26;6.10;99.90
51825;DHT22;37879;52.986;6.282;2023-02-01T00:11:52;6.10;99.90
51825;DHT22;37879;52.986;6.282;2023-02-01T00:14:17;6.10;99.90
51825;DHT22;37879;52.986;6.282;2023-02-01T00:16:43;6.20;99.90
51825;DHT22;37879;52.986;6.282;2023-02-01T00:19:14;6.20;99.90
51825;DHT22;37879;52.986;6.282;2023-02-01T00:21:40;6.10;99.90
51825;DHT22;37879;52.986;6.282;2023-02-01T00:24:06;6.10;99.90
51825;DHT22;37879;52.986;6.282;2023-02-01T00:26:37;6.10;99.90
51825;DHT22;37879;52.986;6.282;2023-02-01T00:29:07;6.10;99.90
51825;DHT22;37879;52.986;6.282;2023-02-01T00:31:33;6.20;99.90
51825;DHT22;37879;52.986;6.282;2023-02-01T00:33:58;6.20;99.90
51825;DHT22;37879;52.986;6.282;2023-02-01T00:36:24;6.20;99.90
51825;DHT22;37879;52.986;6.282;2023-02-01T00:38:49;6.20;99.90
51825;DHT22;37879;52.986;6.282;2023-02-01T00:41:20;6.20;99.90
51825;DHT22;37879;52.986;6.282;2023-02-01T00:43:47;6.20;99.90
51825;DHT22;37879;52.986;6.282;2023-02-01T00:46:15;5.40;99.90
51825;DHT22;37879;52.986;6.282;2023-02-01T00:48:41;6.20;99.90
51825;DHT22;37879;52.986;6.282;2023-02-01T00:51:09;6.10;99.90
51825;DHT22;37879;52.986;6.282;2023-02-01T00:53:35;6.20;99.90
51825;DHT22;37879;52.986;6.282;2023-02-01T00:56:01;6.10;99.90
51825;DHT22;37879;52.986;6.282;2023-02-01T00:58:27;6.20;99.90
51825;DHT22;37879;52.986;6.282;2023-02-01T01:01:07;6.10;99.90
51825;DHT22;37879;52.986;6.282;2023-02-01T01:03:35;6.10;99.90
51825;DHT22;37879;52.986;6.282;2023-02-01T01:06:08;6.20;99.90
51825;DHT22;37879;52.986;6.282;2023-02-01T01:08:34;6.20;99.90
51825;DHT22;37879;52.986;6.282;2023-02-01T01:11:05;6.20;99.90
51825;DHT22;37879;52.986;6.282;2023-02-01T01:13:31;6.20;99.90
51825;DHT22;37879;52.986;6.282;2023-02-01T01:15:59;6.20;99.90
51825;DHT22;37879;52.986;6.282;2023-02-01T01:18:26;6.20;99.90
51825;DHT22;37879;52.986;6.282;2023-02-01T01:20:52;6.30;99.90
51825;DHT22;37879;52.986;6.282;2023-02-01T01:23:18;6.30;99.90
51825;DHT22;37879;52.986;6.282;2023-02-01T01:25:43;6.40;99.90
51825;DHT22;37879;52.986;6.282;2023-02-01T01:28:09;6.30;99.90
51825;DHT22;37879;52.986;6.282;2023-02-01T01:30:35;6.30;99.90
51825;DHT22;37879;52.986;6.282;2023-02-01T01:33:00;6.30;99.90
51825;DHT22;37879;52.986;6.282;2023-02-01T01:35:28;6.40;99.90
51825;DHT22;37879;52.986;6.282;2023-02-01T01:37:53;6.30;99.90
51825;DHT22;37879;52.986;6.282;2023-02-01T01:40:19;6.40;99.90
51825;DHT22;37879;52.986;6.282;2023-02-01T01:42:44;6.40;99.90
51825;DHT22;37879;52.986;6.282;2023-02-01T01:45:30;6.40;99.90
51825;DHT22;37879;52.986;6.282;2023-02-01T01:47:59;6.40;99.90
51825;DHT22;37879;52.986;6.282;2023-02-01T01:51:03;6.30;99.90
51825;DHT22;37879;52.986;6.282;2023-02-01T01:53:38;6.30;99.90
51825;DHT22;37879;52.986;6.282;2023-02-01T01:56:06;6.30;99.90
51825;DHT22;37879;52.986;6.282;2023-02-01T01:58:33;6.20;99.90
51825;DHT22;37879;52.986;6.282;2023-02-01T02:00:59;6.20;99.90
51825;DHT22;37879;52.986;6.282;2023-02-01T02:03:36;6.20;99.90
51825;DHT22;37879;52.986;6.282;2023-02-01T02:06:07;6.20;99.90
51825;DHT22;37879;52.986;6.282;2023-02-01T02:08:39;6.10;99.90
51825;DHT22;37879;52.986;6.282;2023-02-01T02:11:04;6.10;99.90
51825;DHT22;37879;52.986;6.282;2023-02-01T02:13:40;6.10;99.90
51825;DHT22;37879;52.986;6.282;2023-02-01T02:30:41;5.90;99.90
51825;DHT22;37879;52.986;6.282;2023-02-01T02:33:36;6.00;99.90
51825;DHT22;37879;52.986;6.282;2023-02-01T02:38:56;5.90;99.90
51825;DHT22;37879;52.986;6.282;2023-02-01T02:44:46;5.90;99.90
51825;DHT22;37879;52.986;6.282;2023-02-01T02:50:40;5.90;99.90
51825;DHT22;37879;52.986;6.282;2023-02-01T02:54:08;5.90;99.90
51825;DHT22;37879;52.986;6.282;2023-02-01T02:57:30;6.00;99.90
51825;DHT22;37879;52.986;6.282;2023-02-01T03:00:18;6.00;99.90
51825;DHT22;37879;52.986;6.282;2023-02-01T03:03:03;6.00;99.90
51825;DHT22;37879;52.986;6.282;2023-02-01T03:05:49;6.00;99.90
51825;DHT22;37879;52.986;6.282;2023-02-01T03:08:24;6.00;99.90
51825;DHT22;37879;52.986;6.282;2023-02-01T03:10:55;6.00;99.90
51825;DHT22;37879;52.986;6.282;2023-02-01T03:13:28;6.00;99.90
51825;DHT22;37879;52.986;6.282;2023-02-01T03:18:57;6.10;99.90
51825;DHT22;37879;52.986;6.282;2023-02-01T03:24:12;6.20;99.90
51825;DHT22;37879;52.986;6.282;2023-02-01T03:26:47;7.10;99.90
51825;DHT22;37879;52.986;6.282;2023-02-01T03:29:21;6.30;99.90
51825;DHT22;37879;52.986;6.282;2023-02-01T03:31:49;6.30;99.90
51825;DHT22;37879;52.986;6.282;2023-02-01T03:34:14;6.20;99.90
51825;DHT22;37879;52.986;6.282;2023-02-01T03:36:50;6.20;99.90
51825;DHT22;37879;52.986;6.282;2023-02-01T03:39:29;6.10;99.90
51825;DHT22;37879;52.986;6.282;2023-02-01T03:41:59;6.00;99.90
51825;DHT22;37879;52.986;6.282;2023-02-01T03:45:13;6.00;99.90
51825;DHT22;37879;52.986;6.282;2023-02-01T03:47:21;6.00;99.90
51825;DHT22;37879;52.986;6.282;2023-02-01T03:50:04;6.00;99.90
51825;DHT22;37879;52.986;6.282;2023-02-01T03:55:02;6.00;99.90
51825;DHT22;37879;52.986;6.282;2023-02-01T03:57:32;6.00;99.90
51825;DHT22;37879;52.986;6.282;2023-02-01T04:00:06;6.00;99.90
51825;DHT22;37879;52.986;6.282;2023-02-01T04:02:33;6.00;99.90
51825;DHT22;37879;52.986;6.282;2023-02-01T04:04:59;6.00;99.90
51825;DHT22;37879;52.986;6.282;2023-02-01T04:07:24;6.50;99.90
51825;DHT22;37879;52.986;6.282;2023-02-01T04:09:50;5.90;99.90
51825;DHT22;37879;52.986;6.282;2023-02-01T04:12:15;5.80;99.90
51825;DHT22;37879;52.986;6.282;2023-02-01T04:14:41;5.80;99.90
51825;DHT22;37879;52.986;6.282;2023-02-01T04:17:06;5.80;99.90
51825;DHT22;37879;52.986;6.282;2023-02-01T04:19:32;5.70;99.90
51825;DHT22;37879;52.986;6.282;2023-02-01T04:21:58;5.70;99.90
51825;DHT22;37879;52.986;6.282;2023-02-01T04:24:23;5.70;99.90
51825;DHT22;37879;52.986;6.282;2023-02-01T04:26:49;5.70;99.90
51825;DHT22;37879;52.986;6.282;2023-02-01T04:29:14;5.80;99.90
51825;DHT22;37879;52.986;6.282;2023-02-01T04:31:40;5.80;99.90
51825;DHT22;37879;52.986;6.282;2023-02-01T04:34:06;5.80;99.90
51825;DHT22;37879;52.986;6.282;2023-02-01T04:36:31;5.80;99.90
51825;DHT22;37879;52.986;6.282;2023-02-01T04:38:57;5.80;99.90
51825;DHT22;37879;52.986;6.282;2023-02-01T04:41:23;5.80;99.90
51825;DHT22;37879;52.986;6.282;2023-02-01T04:43:50;5.90;99.90
51825;DHT22;37879;52.986;6.282;2023-02-01T04:46:17;5.90;99.90
51825;DHT22;37879;52.986;6.282;2023-02-01T04:48:42;6.90;99.90
51825;DHT22;37879;52.986;6.282;2023-02-01T04:51:09;5.90;99.90
51825;DHT22;37879;52.986;6.282;2023-02-01T04:53:35;5.90;99.90
51825;DHT22;37879;52.986;6.282;2023-02-01T04:56:01;5.90;99.90
51825;DHT22;37879;52.986;6.282;2023-02-01T04:58:27;5.90;99.90
51825;DHT22;37879;52.986;6.282;2023-02-01T05:00:52;5.80;99.90
51825;DHT22;37879;52.986;6.282;2023-02-01T05:03:18;6.10;99.90
51825;DHT22;37879;52.986;6.282;2023-02-01T05:05:44;5.70;99.90
51825;DHT22;37879;52.986;6.282;2023-02-01T05:08:09;5.70;99.90
51825;DHT22;37879;52.986;6.282;2023-02-01T05:10:35;5.70;99.90
51825;DHT22;37879;52.986;6.282;2023-02-01T05:13:00;5.70;99.90
51825;DHT22;37879;52.986;6.282;2023-02-01T05:15:44;5.70;99.90
51825;DHT22;37879;52.986;6.282;2023-02-01T05:18:11;5.80;99.90
51825;DHT22;37879;52.986;6.282;2023-02-01T05:20:37;5.80;99.90
51825;DHT22;37879;52.986;6.282;2023-02-01T05:23:03;5.90;99.90
51825;DHT22;37879;52.986;6.282;2023-02-01T05:25:29;5.90;99.90
51825;DHT22;37879;52.986;6.282;2023-02-01T05:27:54;5.90;99.90
51825;DHT22;37879;52.986;6.282;2023-02-01T05:30:20;6.20;99.90
51825;DHT22;37879;52.986;6.282;2023-02-01T05:32:52;5.90;99.90
51825;DHT22;37879;52.986;6.282;2023-02-01T05:35:18;6.00;99.90
51825;DHT22;37879;52.986;6.282;2023-02-01T05:37:44;6.00;99.90
51825;DHT22;37879;52.986;6.282;2023-02-01T05:40:10;6.00;99.90
51825;DHT22;37879;52.986;6.282;2023-02-01T05:42:36;6.00;99.90
51825;DHT22;37879;52.986;6.282;2023-02-01T05:45:02;6.20;99.90
51825;DHT22;37879;52.986;6.282;2023-02-01T05:47:28;5.90;99.90
51825;DHT22;37879;52.986;6.282;2023-02-01T05:49:53;6.00;99.90
51825;DHT22;37879;52.986;6.282;2023-02-01T05:52:19;6.00;99.90
51825;DHT22;37879;52.986;6.282;2023-02-01T05:54:46;6.00;99.90
51825;DHT22;37879;52.986;6.282;2023-02-01T05:57:12;6.20;99.90
51825;DHT22;37879;52.986;6.282;2023-02-01T05:59:39;6.00;99.90
51825;DHT22;37879;52.986;6.282;2023-02-01T06:02:09;6.00;99.90
51825;DHT22;37879;52.986;6.282;2023-02-01T06:04:35;6.00;99.90
51825;DHT22;37879;52.986;6.282;2023-02-01T06:07:01;5.90;99.90
51825;DHT22;37879;52.986;6.282;2023-02-01T06:09:27;6.50;99.90
51825;DHT22;37879;52.986;6.282;2023-02-01T06:11:54;5.90;99.90
51825;DHT22;37879;52.986;6.282;2023-02-01T06:14:19;5.90;99.90
51825;DHT22;37879;52.986;6.282;2023-02-01T06:16:45;5.90;99.90
51825;DHT22;37879;52.986;6.282;2023-02-01T06:19:12;5.90;99.90
51825;DHT22;37879;52.986;6.282;2023-02-01T06:21:38;5.90;99.90
51825;DHT22;37879;52.986;6.282;2023-02-01T06:24:04;5.90;99.90
51825;DHT22;37879;52.986;6.282;2023-02-01T06:26:30;5.90;99.90
51825;DHT22;37879;52.986;6.282;2023-02-01T06:28:55;5.90;99.90
51825;DHT22;37879;52.986;6.282;2023-02-01T06:31:22;5.90;99.90
51825;DHT22;37879;52.986;6.282;2023-02-01T06:33:48;6.00;99.90
51825;DHT22;37879;52.986;6.282;2023-02-01T06:36:14;5.90;99.90
51825;DHT22;37879;52.986;6.282;2023-02-01T06:38:41;5.80;99.90
51825;DHT22;37879;52.986;6.282;2023-02-01T06:41:07;5.80;99.90
51825;DHT22;37879;52.986;6.282;2023-02-01T06:43:33;5.80;99.90
51825;DHT22;37879;52.986;6.282;2023-02-01T06:46:01;5.80;99.90
51825;DHT22;37879;52.986;6.282;2023-02-01T06:48:27;5.80;99.90
51825;DHT22;37879;52.986;6.282;2023-02-01T06:50:52;5.80;99.90
51825;DHT22;37879;52.986;6.282;2023-02-01T06:53:18;5.80;99.90
51825;DHT22;37879;52.986;6.282;2023-02-01T06:55:54;5.70;99.90
51825;DHT22;37879;52.986;6.282;2023-02-01T06:58:20;5.70;99.90
51825;DHT22;37879;52.986;6.282;2023-02-01T07:00:46;5.70;99.90
51825;DHT22;37879;52.986;6.282;2023-02-01T07:03:11;5.80;99.90
51825;DHT22;37879;52.986;6.282;2023-02-01T07:05:37;5.70;99.90
51825;DHT22;37879;52.986;6.282;2023-02-01T07:08:02;5.80;99.90
51825;DHT22;37879;52.986;6.282;2023-02-01T07:10:28;5.90;99.90
51825;DHT22;37879;52.986;6.282;2023-02-01T07:12:59;6.40;99.90
51825;DHT22;37879;52.986;6.282;2023-02-01T07:15:25;5.90;99.90
51825;DHT22;37879;52.986;6.282;2023-02-01T07:17:51;5.90;99.90
51825;DHT22;37879;52.986;6.282;2023-02-01T07:20:16;5.90;99.90
51825;DHT22;37879;52.986;6.282;2023-02-01T07:22:42;6.00;99.90
51825;DHT22;37879;52.986;6.282;2023-02-01T07:25:08;7.20;99.90
51825;DHT22;37879;52.986;6.282;2023-02-01T07:27:34;5.90;99.90
51825;DHT22;37879;52.986;6.282;2023-02-01T07:30:00;6.10;99.90
51825;DHT22;37879;52.986;6.282;2023-02-01T07:32:28;6.00;99.90
51825;DHT22;37879;52.986;6.282;2023-02-01T07:34:54;6.00;99.90
51825;DHT22;37879;52.986;6.282;2023-02-01T07:37:19;5.90;99.90
51825;DHT22;37879;52.986;6.282;2023-02-01T07:39:45;5.90;99.90
51825;DHT22;37879;52.986;6.282;2023-02-01T07:42:11;5.90;99.90
51825;DHT22;37879;52.986;6.282;2023-02-01T07:44:36;5.90;99.90
51825;DHT22;37879;52.986;6.282;2023-02-01T07:47:02;5.80;99.90
51825;DHT22;37879;52.986;6.282;2023-02-01T07:49:27;5.80;99.90
51825;DHT22;37879;52.986;6.282;2023-02-01T07:51:53;5.70;99.90
51825;DHT22;37879;52.986;6.282;2023-02-01T07:54:19;5.70;99.90
51825;DHT22;37879;52.986;6.282;2023-02-01T07:56:44;5.70;99.90
51825;DHT22;37879;52.986;6.282;2023-02-01T07:59:10;5.60;99.90
51825;DHT22;37879;52.986;6.282;2023-02-01T08:01:37;5.60;99.90
51825;DHT22;37879;52.986;6.282;2023-02-01T08:04:03;5.60;99.90
51825;DHT22;37879;52.986;6.282;2023-02-01T08:06:31;5.60;99.90
51825;DHT22;37879;52.986;6.282;2023-02-01T08:08:57;5.70;99.90
51825;DHT22;37879;52.986;6.282;2023-02-01T08:11:25;5.70;99.90
51825;DHT22;37879;52.986;6.282;2023-02-01T08:13:51;5.90;99.90
51825;DHT22;37879;52.986;6.282;2023-02-01T08:16:18;5.80;99.90
51825;DHT22;37879;52.986;6.282;2023-02-01T08:18:44;5.80;99.90
51825;DHT22;37879;52.986;6.282;2023-02-01T08:21:15;5.80;99.90
51825;DHT22;37879;52.986;6.282;2023-02-01T08:23:42;5.80;99.90
51825;DHT22;37879;52.986;6.282;2023-02-01T08:26:15;5.90;99.90
51825;DHT22;37879;52.986;6.282;2023-02-01T08:28:43;5.90;99.90
51825;DHT22;37879;52.986;6.282;2023-02-01T08:31:13;5.90;99.90
51825;DHT22;37879;52.986;6.282;2023-02-01T08:33:43;6.30;99.90
51825;DHT22;37879;52.986;6.282;2023-02-01T08:36:10;5.90;99.90
51825;DHT22;37879;52.986;6.282;2023-02-01T08:38:37;6.00;99.90
51825;DHT22;37879;52.986;6.282;2023-02-01T08:41:08;6.00;99.90
51825;DHT22;37879;52.986;6.282;2023-02-01T08:43:35;6.00;99.90
51825;DHT22;37879;52.986;6.282;2023-02-01T08:46:00;6.00;99.90
51825;DHT22;37879;52.986;6.282;2023-02-01T08:48:26;6.10;99.90
51825;DHT22;37879;52.986;6.282;2023-02-01T08:50:52;6.40;99.90
51825;DHT22;37879;52.986;6.282;2023-02-01T08:53:17;6.10;99.90
51825;DHT22;37879;52.986;6.282;2023-02-01T08:55:43;6.10;99.90
51825;DHT22;37879;52.986;6.282;2023-02-01T08:58:10;7.50;99.90
51825;DHT22;37879;52.986;6.282;2023-02-01T09:00:36;6.20;99.90
51825;DHT22;37879;52.986;6.282;2023-02-01T09:03:01;6.20;99.90
51825;DHT22;37879;52.986;6.282;2023-02-01T09:05:27;6.20;99.90
51825;DHT22;37879;52.986;6.282;2023-02-01T09:07:53;6.20;99.90
51825;DHT22;37879;52.986;6.282;2023-02-01T09:10:19;6.20;99.90
51825;DHT22;37879;52.986;6.282;2023-02-01T09:12:45;6.20;99.90
51825;DHT22;37879;52.986;6.282;2023-02-01T09:15:10;6.20;99.90
51825;DHT22;37879;52.986;6.282;2023-02-01T09:17:36;6.10;99.90
51825;DHT22;37879;52.986;6.282;2023-02-01T09:20:03;6.20;99.90
51825;DHT22;37879;52.986;6.282;2023-02-01T09:22:29;6.20;99.90
51825;DHT22;37879;52.986;6.282;2023-02-01T09:24:54;6.20;99.90
51825;DHT22;37879;52.986;6.282;2023-02-01T09:27:20;6.20;99.90
51825;DHT22;37879;52.986;6.282;2023-02-01T09:29:46;6.20;99.90
51825;DHT22;37879;52.986;6.282;2023-02-01T09:32:18;6.20;99.90
51825;DHT22;37879;52.986;6.282;2023-02-01T09:34:44;6.20;99.90
51825;DHT22;37879;52.986;6.282;2023-02-01T09:37:09;6.20;99.90
51825;DHT22;37879;52.986;6.282;2023-02-01T09:39:35;6.20;99.90
51825;DHT22;37879;52.986;6.282;2023-02-01T09:42:19;6.20;99.90
51825;DHT22;37879;52.986;6.282;2023-02-01T09:47:17;6.20;99.90
51825;DHT22;37879;52.986;6.282;2023-02-01T09:53:02;6.30;99.90
51825;DHT22;37879;52.986;6.282;2023-02-01T09:55:41;6.30;99.90
51825;DHT22;37879;52.986;6.282;2023-02-01T09:58:35;6.30;99.90
51825;DHT22;37879;52.986;6.282;2023-02-01T10:01:03;6.40;99.90
51825;DHT22;37879;52.986;6.282;2023-02-01T10:03:32;6.40;99.90
51825;DHT22;37879;52.986;6.282;2023-02-01T10:11:21;6.30;99.90
51825;DHT22;37879;52.986;6.282;2023-02-01T10:14:44;6.20;99.90
51825;DHT22;37879;52.986;6.282;2023-02-01T10:16:49;6.30;99.90
51825;DHT22;37879;52.986;6.282;2023-02-01T10:22:05;6.40;99.90
51825;DHT22;37879;52.986;6.282;2023-02-01T10:27:14;6.50;99.90
51825;DHT22;37879;52.986;6.282;2023-02-01T10:29:43;6.50;99.90
51825;DHT22;37879;52.986;6.282;2023-02-01T10:32:22;6.50;99.90
51825;DHT22;37879;52.986;6.282;2023-02-01T10:35:12;7.10;99.90
51825;DHT22;37879;52.986;6.282;2023-02-01T10:37:41;6.50;99.90
51825;DHT22;37879;52.986;6.282;2023-02-01T10:40:13;6.60;99.90
51825;DHT22;37879;52.986;6.282;2023-02-01T10:42:40;6.60;99.90
51825;DHT22;37879;52.986;6.282;2023-02-01T10:45:11;6.60;99.90
51825;DHT22;37879;52.986;6.282;2023-02-01T10:47:38;6.70;99.90
51825;DHT22;37879;52.986;6.282;2023-02-01T10:53:10;6.70;99.90
51825;DHT22;37879;52.986;6.282;2023-02-01T10:58:14;6.80;99.90
51825;DHT22;37879;52.986;6.282;2023-02-01T11:00:44;6.80;99.90
51825;DHT22;37879;52.986;6.282;2023-02-01T11:05:48;6.80;99.90
51825;DHT22;37879;52.986;6.282;2023-02-01T11:08:17;7.30;99.90
51825;DHT22;37879;52.986;6.282;2023-02-01T11:10:44;6.90;99.90
51825;DHT22;37879;52.986;6.282;2023-02-01T11:13:17;6.90;99.90
51825;DHT22;37879;52.986;6.282;2023-02-01T11:15:45;6.80;99.90
51825;DHT22;37879;52.986;6.282;2023-02-01T11:18:20;7.60;99.90
51825;DHT22;37879;52.986;6.282;2023-02-01T11:20:49;7.00;99.90
51825;DHT22;37879;52.986;6.282;2023-02-01T11:23:19;7.00;99.90
51825;DHT22;37879;52.986;6.282;2023-02-01T11:25:52;7.00;99.90
51825;DHT22;37879;52.986;6.282;2023-02-01T11:28:21;6.90;99.90
51825;DHT22;37879;52.986;6.282;2023-02-01T11:30:48;6.90;99.90
51825;DHT22;37879;52.986;6.282;2023-02-01T11:33:18;6.80;99.90
51825;DHT22;37879;52.986;6.282;2023-02-01T11:35:45;6.70;99.90
51825;DHT22;37879;52.986;6.282;2023-02-01T11:38:29;6.70;99.90
51825;DHT22;37879;52.986;6.282;2023-02-01T11:40:55;6.70;99.90
51825;DHT22;37879;52.986;6.282;2023-02-01T11:43:35;6.70;99.90
51825;DHT22;37879;52.986;6.282;2023-02-01T11:46:02;6.80;99.90
51825;DHT22;37879;52.986;6.282;2023-02-01T11:48:33;6.80;99.90
51825;DHT22;37879;52.986;6.282;2023-02-01T11:56:55;6.70;99.90
51825;DHT22;37879;52.986;6.282;2023-02-01T12:02:38;6.70;99.90
51825;DHT22;37879;52.986;6.282;2023-02-01T12:12:51;6.60;99.90
51825;DHT22;37879;52.986;6.282;2023-02-01T12:21:19;6.60;99.90
51825;DHT22;37879;52.986;6.282;2023-02-01T12:27:01;6.90;99.90
51825;DHT22;37879;52.986;6.282;2023-02-01T12:43:51;7.20;99.90
51825;DHT22;37879;52.986;6.282;2023-02-01T12:46:31;7.30;99.90
51825;DHT22;37879;52.986;6.282;2023-02-01T12:49:28;7.30;99.90
51825;DHT22;37879;52.986;6.282;2023-02-01T12:52:00;7.40;99.90
51825;DHT22;37879;52.986;6.282;2023-02-01T12:54:57;7.50;99.90
51825;DHT22;37879;52.986;6.282;2023-02-01T12:57:30;7.50;99.90
51825;DHT22;37879;52.986;6.282;2023-02-01T13:03:14;7.60;99.90
51825;DHT22;37879;52.986;6.282;2023-02-01T13:06:12;7.60;99.90
51825;DHT22;37879;52.986;6.282;2023-02-01T13:11:34;7.60;99.90
51825;DHT22;37879;52.986;6.282;2023-02-01T13:14:33;7.60;99.90
51825;DHT22;37879;52.986;6.282;2023-02-01T13:17:23;7.60;99.90
51825;DHT22;37879;52.986;6.282;2023-02-01T13:19:57;7.60;99.90
51825;DHT22;37879;52.986;6.282;2023-02-01T13:22:39;7.60;99.90
51825;DHT22;37879;52.986;6.282;2023-02-01T13:25:24;7.70;99.90
51825;DHT22;37879;52.986;6.282;2023-02-01T13:27:54;7.80;99.90
51825;DHT22;37879;52.986;6.282;2023-02-01T13:30:33;7.70;99.90
51825;DHT22;37879;52.986;6.282;2023-02-01T13:42:11;8.00;99.90
51825;DHT22;37879;52.986;6.282;2023-02-01T13:44:42;8.00;99.90
51825;DHT22;37879;52.986;6.282;2023-02-01T13:47:22;8.10;99.90
51825;DHT22;37879;52.986;6.282;2023-02-01T13:49:49;8.00;99.90
51825;DHT22;37879;52.986;6.282;2023-02-01T13:55:14;8.10;99.90
51825;DHT22;37879;52.986;6.282;2023-02-01T13:57:42;8.00;99.90
51825;DHT22;37879;52.986;6.282;2023-02-01T14:10:52;7.90;99.90
51825;DHT22;37879;52.986;6.282;2023-02-01T14:13:41;7.80;99.90
51825;DHT22;37879;52.986;6.282;2023-02-01T14:16:14;7.80;99.90
51825;DHT22;37879;52.986;6.282;2023-02-01T14:21:31;7.80;99.90
51825;DHT22;37879;52.986;6.282;2023-02-01T14:26:42;7.80;99.90
51825;DHT22;37879;52.986;6.282;2023-02-01T14:31:58;7.70;99.90
51825;DHT22;37879;52.986;6.282;2023-02-01T14:55:42;7.60;99.90
51825;DHT22;37879;52.986;6.282;2023-02-01T14:58:19;7.60;99.90
51825;DHT22;37879;52.986;6.282;2023-02-01T15:00:54;6.30;99.90
51825;DHT22;37879;52.986;6.282;2023-02-01T15:08:46;7.80;99.90
51825;DHT22;37879;52.986;6.282;2023-02-01T15:11:15;7.80;99.90
51825;DHT22;37879;52.986;6.282;2023-02-01T15:13:48;7.80;99.90
51825;DHT22;37879;52.986;6.282;2023-02-01T15:16:16;7.80;99.90
51825;DHT22;37879;52.986;6.282;2023-02-01T15:18:42;8.20;99.90
51825;DHT22;37879;52.986;6.282;2023-02-01T15:21:20;7.80;99.90
51825;DHT22;37879;52.986;6.282;2023-02-01T15:23:46;7.80;99.90
51825;DHT22;37879;52.986;6.282;2023-02-01T15:26:31;7.80;99.90
51825;DHT22;37879;52.986;6.282;2023-02-01T15:28:58;7.80;99.90
51825;DHT22;37879;52.986;6.282;2023-02-01T15:31:43;7.70;99.90
51825;DHT22;37879;52.986;6.282;2023-02-01T15:34:10;7.70;99.90
51825;DHT22;37879;52.986;6.282;2023-02-01T15:36:36;7.70;99.90
51825;DHT22;37879;52.986;6.282;2023-02-01T15:39:18;7.70;99.90
51825;DHT22;37879;52.986;6.282;2023-02-01T15:41:57;7.70;99.90
51825;DHT22;37879;52.986;6.282;2023-02-01T15:44:41;7.70;99.90
51825;DHT22;37879;52.986;6.282;2023-02-01T15:47:17;7.70;99.90
51825;DHT22;37879;52.986;6.282;2023-02-01T15:49:45;7.60;99.90
51825;DHT22;37879;52.986;6.282;2023-02-01T15:52:36;8.20;99.90
51825;DHT22;37879;52.986;6.282;2023-02-01T15:55:18;7.60;99.90
51825;DHT22;37879;52.986;6.282;2023-02-01T15:57:45;7.60;99.90
51825;DHT22;37879;52.986;6.282;2023-02-01T16:00:26;7.70;99.90
51825;DHT22;37879;52.986;6.282;2023-02-01T16:03:01;7.60;99.90
51825;DHT22;37879;52.986;6.282;2023-02-01T16:05:38;7.50;99.90
51825;DHT22;37879;52.986;6.282;2023-02-01T16:08:21;7.50;99.90
51825;DHT22;37879;52.986;6.282;2023-02-01T16:10:49;7.40;99.90
51825;DHT22;37879;52.986;6.282;2023-02-01T16:13:17;7.30;99.90
51825;DHT22;37879;52.986;6.282;2023-02-01T16:15:43;7.30;99.90
51825;DHT22;37879;52.986;6.282;2023-02-01T16:18:10;7.30;99.90
51825;DHT22;37879;52.986;6.282;2023-02-01T16:20:38;7.20;99.90
51825;DHT22;37879;52.986;6.282;2023-02-01T16:23:04;7.20;99.90
51825;DHT22;37879;52.986;6.282;2023-02-01T16:25:31;7.20;99.90
51825;DHT22;37879;52.986;6.282;2023-02-01T16:27:57;7.10;99.90
51825;DHT22;37879;52.986;6.282;2023-02-01T16:30:22;7.10;99.90
51825;DHT22;37879;52.986;6.282;2023-02-01T16:32:55;7.10;99.90
51825;DHT22;37879;52.986;6.282;2023-02-01T16:35:24;7.00;99.90
51825;DHT22;37879;52.986;6.282;2023-02-01T16:37:50;6.90;99.90
51825;DHT22;37879;52.986;6.282;2023-02-01T16:40:17;6.90;99.90
51825;DHT22;37879;52.986;6.282;2023-02-01T16:42:45;6.90;99.90
51825;DHT22;37879;52.986;6.282;2023-02-01T16:45:13;6.90;99.90
51825;DHT22;37879;52.986;6.282;2023-02-01T16:47:42;6.80;99.90
51825;DHT22;37879;52.986;6.282;2023-02-01T16:50:20;6.80;99.90
51825;DHT22;37879;52.986;6.282;2023-02-01T16:52:46;6.80;99.90
51825;DHT22;37879;52.986;6.282;2023-02-01T16:55:16;6.70;99.90
51825;DHT22;37879;52.986;6.282;2023-02-01T16:57:43;6.80;99.90
51825;DHT22;37879;52.986;6.282;2023-02-01T17:00:12;6.80;99.90
51825;DHT22;37879;52.986;6.282;2023-02-01T17:02:38;6.80;99.90
51825;DHT22;37879;52.986;6.282;2023-02-01T17:05:05;6.80;99.90
51825;DHT22;37879;52.986;6.282;2023-02-01T17:07:31;6.80;99.90
51825;DHT22;37879;52.986;6.282;2023-02-01T17:09:57;6.80;99.90
51825;DHT22;37879;52.986;6.282;2023-02-01T17:12:23;6.70;99.90
51825;DHT22;37879;52.986;6.282;2023-02-01T17:14:50;7.30;99.90
51825;DHT22;37879;52.986;6.282;2023-02-01T17:17:17;6.70;99.90
51825;DHT22;37879;52.986;6.282;2023-02-01T17:19:48;6.70;99.90
51825;DHT22;37879;52.986;6.282;2023-02-01T17:22:17;6.60;99.90
51825;DHT22;37879;52.986;6.282;2023-02-01T17:24:43;6.60;99.90
51825;DHT22;37879;52.986;6.282;2023-02-01T17:27:09;6.50;99.90
51825;DHT22;37879;52.986;6.282;2023-02-01T17:29:35;6.50;99.90
51825;DHT22;37879;52.986;6.282;2023-02-01T17:32:01;6.50;99.90
51825;DHT22;37879;52.986;6.282;2023-02-01T17:34:27;6.40;99.90
51825;DHT22;37879;52.986;6.282;2023-02-01T17:36:53;6.90;99.90
51825;DHT22;37879;52.986;6.282;2023-02-01T17:39:19;6.50;99.90
51825;DHT22;37879;52.986;6.282;2023-02-01T17:42:04;6.50;99.90
51825;DHT22;37879;52.986;6.282;2023-02-01T17:44:31;6.50;99.90
51825;DHT22;37879;52.986;6.282;2023-02-01T17:46:57;6.50;99.90
51825;DHT22;37879;52.986;6.282;2023-02-01T17:49:24;6.50;99.90
51825;DHT22;37879;52.986;6.282;2023-02-01T17:51:50;6.40;99.90
51825;DHT22;37879;52.986;6.282;2023-02-01T17:54:16;6.50;99.90
51825;DHT22;37879;52.986;6.282;2023-02-01T17:56:44;6.50;99.90
51825;DHT22;37879;52.986;6.282;2023-02-01T17:59:10;6.40;99.90
51825;DHT22;37879;52.986;6.282;2023-02-01T18:01:36;6.40;99.90
51825;DHT22;37879;52.986;6.282;2023-02-01T18:04:02;6.40;99.90
51825;DHT22;37879;52.986;6.282;2023-02-01T18:06:31;6.40;99.90
51825;DHT22;37879;52.986;6.282;2023-02-01T18:08:58;6.30;99.90
51825;DHT22;37879;52.986;6.282;2023-02-01T18:11:24;7.40;99.90
51825;DHT22;37879;52.986;6.282;2023-02-01T18:13:51;6.20;99.90
51825;DHT22;37879;52.986;6.282;2023-02-01T18:16:22;6.20;99.90
51825;DHT22;37879;52.986;6.282;2023-02-01T18:18:49;6.20;99.90
51825;DHT22;37879;52.986;6.282;2023-02-01T18:21:16;6.10;99.90
51825;DHT22;37879;52.986;6.282;2023-02-01T18:23:42;6.10;99.90
51825;DHT22;37879;52.986;6.282;2023-02-01T18:26:13;6.10;99.90
51825;DHT22;37879;52.986;6.282;2023-02-01T18:28:39;6.10;99.90
51825;DHT22;37879;52.986;6.282;2023-02-01T18:31:10;6.00;99.90
51825;DHT22;37879;52.986;6.282;2023-02-01T18:33:41;6.00;99.90
51825;DHT22;37879;52.986;6.282;2023-02-01T18:36:11;6.00;99.90
51825;DHT22;37879;52.986;6.282;2023-02-01T18:38:37;6.10;99.90
51825;DHT22;37879;52.986;6.282;2023-02-01T18:41:03;6.00;99.90
51825;DHT22;37879;52.986;6.282;2023-02-01T18:43:29;6.10;99.90